Airfield :
LOGIN :

Register | Disclaimer

   EN    FR    IT 

 










Legend :    VFR   Marginal VFR   IFR   Intensive IFR   Very Intensive IFR
Visi :
Ceiling :
>= 8 km
>= 3000ft
5 to 8 km
1000 to 3000 ft
1500m to 5 km
500 to 1000 ft
800 to 1500m
200 to 500 ft
< 800m
< 200 ft
Symbols :   Thunderstorms  Fog  Heavy snow  Heavy precipitations  Wind > 20 kt
SIGMETs :     Misc.  Thunderstorms  Icing  Turbulence  Mountain Waves  Volcanic Ashes







- Airport Elevation : 137 ft


LIPS - Istrana AFB Treviso

CURRENT METAR :
  • 251155Z 20005KT 7000 SCT040 BKN070 18/14 Q1013 RMK BKN VIS MIN 7000 WIND THR26 00000KT WIND THR08 17004KT WHT

EXPIRED METARs :
  • 251055Z 03003KT 7000 SCT015 BKN070 15/13 Q1014 RMK BKN VIS MIN 7000 WIND THR26 00000KT WIND THR08 09003KT WHT
  • 250955Z 07004KT 6000 SCT010 BKN060 15/13 Q1014 RMK BKN VIS MIN 6000 WIND THR26 07003KT WIND THR08 06004KT WHT

TAF TAF LIPS
Valid from the 25 at 12:00 until the 25 at 21:00 UTC


251100Z 2512/2521 07005KT 7000 SCT010 BKN050
TEMPO 2512/2521 4000 BR
PROB30
TEMPO 2512/2521 2500 RA BR
No reported NOTAMs for that airfield.



MET'MAP, your aeronautical weather chart ! - Copyright ORBIFLY December 2007 - Disclaimer

ORBIFLY MET'MAP TEAM :

Programming & Development : Alexandra Zaïnal
Concept & Development : Baudouin d'Aumeries
Co-Development & Prog : Marc-Olivier Méhu
Technical & hardware support : Manuel Goepfert

Contact : metmap@orbifly.com




SOURCES & CREDITS :

   NOAA